メインページ
METAR-TAF:

METAR-TAF

空港 :

コスラエ国際空港

コスラエ州, ミクロネシア

緯度: 05-21N, 経度: 162-57E, 海抜: 3m

現時点の気象観測

当レポートは6時間0分前の06:55(UTC)に作成
の風 6kt
気温 29°C
湿度 79%
気圧 1008 hPa
視程: 16.1km
高度1800ftの雲は散在している
高度13000ftの雲は散在している
高度30000ftの千切れ雲あり

METAR: PTSA 240655Z 09006KT 10SM SCT018 SCT130 BKN300 29/25 A2976 RMK LAST

時間: 23:55 (12:55 UTC)

予報

当レポートは7時間24分前の05:31(UTC)に作成
予報は24日の 06時(UTC)から 25日の 06時(UTC)まで有効
の風 11kt
視程: 10km
高度2000ftの雲は散在している
高度5000ftの雲は散在している
高度13000ftの千切れ雲あり
近辺でにわか雨,

TAF: PTSA 240531Z 2406/2506 09011KT P6SM VCSH SCT020 SCT050 BKN130

4,000以上の空港の気象観測と天気予報(METAR報とTAF報)

利用可能な観測所は地図上に黄色い丸と赤い丸で示す。

丸の上にカーソルを重ねると観測所名を参照できる。

次にクリックすると気象観測と天気予報を参照できる。

マップの切り替え:黒色「×」印の緑ボタンをクリックして拡大、「-」印の緑ボタンをクリックして縮小、緑色の三角印をクリックして隣りの地図に切り替え


METAR-TAF: